sensor_id;sensor_type;location;lat;lon;timestamp;temperature;humidity
29731;DHT22;16639;51.488;0.152;2023-05-16T00:02:02;10.40;99.90
29731;DHT22;16639;51.488;0.152;2023-05-16T00:04:29;10.40;99.90
29731;DHT22;16639;51.488;0.152;2023-05-16T00:06:59;10.40;99.90
29731;DHT22;16639;51.488;0.152;2023-05-16T00:09:27;10.30;99.90
29731;DHT22;16639;51.488;0.152;2023-05-16T00:11:54;10.30;99.90
29731;DHT22;16639;51.488;0.152;2023-05-16T00:14:48;10.30;99.90
29731;DHT22;16639;51.488;0.152;2023-05-16T00:17:44;10.30;99.90
29731;DHT22;16639;51.488;0.152;2023-05-16T00:21:05;10.30;99.90
29731;DHT22;16639;51.488;0.152;2023-05-16T00:24:44;10.30;99.90
29731;DHT22;16639;51.488;0.152;2023-05-16T00:36:12;10.20;99.90
29731;DHT22;16639;51.488;0.152;2023-05-16T00:47:24;10.40;99.90
29731;DHT22;16639;51.488;0.152;2023-05-16T00:51:07;10.50;99.90
29731;DHT22;16639;51.488;0.152;2023-05-16T00:54:23;10.60;99.90
29731;DHT22;16639;51.488;0.152;2023-05-16T00:57:37;10.70;99.90
29731;DHT22;16639;51.488;0.152;2023-05-16T01:00:06;10.80;99.90
29731;DHT22;16639;51.488;0.152;2023-05-16T01:02:37;10.90;99.90
29731;DHT22;16639;51.488;0.152;2023-05-16T01:05:05;11.20;99.90
29731;DHT22;16639;51.488;0.152;2023-05-16T01:07:34;11.00;99.90
29731;DHT22;16639;51.488;0.152;2023-05-16T01:16:59;11.20;99.90
29731;DHT22;16639;51.488;0.152;2023-05-16T01:22:02;11.20;99.90
29731;DHT22;16639;51.488;0.152;2023-05-16T01:24:38;11.20;99.90
29731;DHT22;16639;51.488;0.152;2023-05-16T01:27:10;11.10;99.90
29731;DHT22;16639;51.488;0.152;2023-05-16T01:29:39;11.10;99.90
29731;DHT22;16639;51.488;0.152;2023-05-16T01:32:07;11.00;99.90
29731;DHT22;16639;51.488;0.152;2023-05-16T01:34:34;11.00;99.90
29731;DHT22;16639;51.488;0.152;2023-05-16T01:37:18;11.00;99.90
29731;DHT22;16639;51.488;0.152;2023-05-16T01:40:01;11.00;99.90
29731;DHT22;16639;51.488;0.152;2023-05-16T01:42:33;12.10;99.90
29731;DHT22;16639;51.488;0.152;2023-05-16T01:45:11;11.00;99.90
29731;DHT22;16639;51.488;0.152;2023-05-16T01:47:42;11.00;99.90
29731;DHT22;16639;51.488;0.152;2023-05-16T01:50:15;11.00;99.90
29731;DHT22;16639;51.488;0.152;2023-05-16T01:53:13;11.00;99.90
29731;DHT22;16639;51.488;0.152;2023-05-16T01:55:44;10.80;99.90
29731;DHT22;16639;51.488;0.152;2023-05-16T01:58:14;10.70;99.90
29731;DHT22;16639;51.488;0.152;2023-05-16T02:00:42;10.70;99.90
29731;DHT22;16639;51.488;0.152;2023-05-16T02:03:12;10.60;99.90
29731;DHT22;16639;51.488;0.152;2023-05-16T02:05:39;10.60;99.90
29731;DHT22;16639;51.488;0.152;2023-05-16T02:08:07;10.50;99.90
29731;DHT22;16639;51.488;0.152;2023-05-16T02:10:35;11.00;99.90
29731;DHT22;16639;51.488;0.152;2023-05-16T02:13:02;10.40;99.90
29731;DHT22;16639;51.488;0.152;2023-05-16T02:15:30;10.40;99.90
29731;DHT22;16639;51.488;0.152;2023-05-16T02:17:57;10.40;99.90
29731;DHT22;16639;51.488;0.152;2023-05-16T02:20:25;10.40;99.90
29731;DHT22;16639;51.488;0.152;2023-05-16T02:22:52;10.40;99.90
29731;DHT22;16639;51.488;0.152;2023-05-16T02:25:20;10.40;99.90
29731;DHT22;16639;51.488;0.152;2023-05-16T02:27:47;10.40;99.90
29731;DHT22;16639;51.488;0.152;2023-05-16T02:30:15;10.40;99.90
29731;DHT22;16639;51.488;0.152;2023-05-16T02:32:42;10.40;99.90
29731;DHT22;16639;51.488;0.152;2023-05-16T02:35:15;10.30;99.90
29731;DHT22;16639;51.488;0.152;2023-05-16T02:37:42;10.30;99.90
29731;DHT22;16639;51.488;0.152;2023-05-16T02:40:10;10.20;99.90
29731;DHT22;16639;51.488;0.152;2023-05-16T02:42:38;10.20;99.90
29731;DHT22;16639;51.488;0.152;2023-05-16T02:45:06;10.10;99.90
29731;DHT22;16639;51.488;0.152;2023-05-16T02:47:34;10.10;99.90
29731;DHT22;16639;51.488;0.152;2023-05-16T02:50:02;10.10;99.90
29731;DHT22;16639;51.488;0.152;2023-05-16T02:52:29;10.00;99.90
29731;DHT22;16639;51.488;0.152;2023-05-16T02:54:57;10.00;99.90
29731;DHT22;16639;51.488;0.152;2023-05-16T02:57:42;10.00;99.90
29731;DHT22;16639;51.488;0.152;2023-05-16T03:00:10;9.90;99.90
29731;DHT22;16639;51.488;0.152;2023-05-16T03:02:38;9.90;99.90
29731;DHT22;16639;51.488;0.152;2023-05-16T03:05:06;9.80;99.90
29731;DHT22;16639;51.488;0.152;2023-05-16T03:07:33;9.80;99.90
29731;DHT22;16639;51.488;0.152;2023-05-16T03:10:01;9.80;99.90
29731;DHT22;16639;51.488;0.152;2023-05-16T03:12:28;9.70;99.90
29731;DHT22;16639;51.488;0.152;2023-05-16T03:14:56;9.70;99.90
29731;DHT22;16639;51.488;0.152;2023-05-16T03:17:24;9.70;99.90
29731;DHT22;16639;51.488;0.152;2023-05-16T03:19:52;9.70;99.90
29731;DHT22;16639;51.488;0.152;2023-05-16T03:22:19;9.70;99.90
29731;DHT22;16639;51.488;0.152;2023-05-16T03:24:47;9.80;99.90
29731;DHT22;16639;51.488;0.152;2023-05-16T03:27:14;9.60;99.90
29731;DHT22;16639;51.488;0.152;2023-05-16T03:29:42;9.80;99.90
29731;DHT22;16639;51.488;0.152;2023-05-16T03:32:10;9.90;99.90
29731;DHT22;16639;51.488;0.152;2023-05-16T03:34:38;9.90;99.90
29731;DHT22;16639;51.488;0.152;2023-05-16T03:37:05;9.90;99.90
29731;DHT22;16639;51.488;0.152;2023-05-16T03:39:33;9.90;99.90
29731;DHT22;16639;51.488;0.152;2023-05-16T03:42:00;9.90;99.90
29731;DHT22;16639;51.488;0.152;2023-05-16T03:44:27;9.90;99.90
29731;DHT22;16639;51.488;0.152;2023-05-16T03:46:55;9.80;99.90
29731;DHT22;16639;51.488;0.152;2023-05-16T03:49:25;9.80;99.90
29731;DHT22;16639;51.488;0.152;2023-05-16T03:51:55;9.80;99.90
29731;DHT22;16639;51.488;0.152;2023-05-16T03:54:23;9.90;99.90
29731;DHT22;16639;51.488;0.152;2023-05-16T03:56:51;10.00;99.90
29731;DHT22;16639;51.488;0.152;2023-05-16T03:59:18;10.00;99.90
29731;DHT22;16639;51.488;0.152;2023-05-16T04:01:46;9.80;99.90
29731;DHT22;16639;51.488;0.152;2023-05-16T04:04:13;10.10;99.90
29731;DHT22;16639;51.488;0.152;2023-05-16T04:06:40;10.20;99.90
29731;DHT22;16639;51.488;0.152;2023-05-16T04:09:08;10.20;99.90
29731;DHT22;16639;51.488;0.152;2023-05-16T04:11:35;10.20;99.90
29731;DHT22;16639;51.488;0.152;2023-05-16T04:14:04;10.20;99.90
29731;DHT22;16639;51.488;0.152;2023-05-16T04:16:32;10.20;99.90
29731;DHT22;16639;51.488;0.152;2023-05-16T04:18:59;10.20;99.90
29731;DHT22;16639;51.488;0.152;2023-05-16T04:21:27;10.30;99.90
29731;DHT22;16639;51.488;0.152;2023-05-16T04:23:54;10.20;99.90
29731;DHT22;16639;51.488;0.152;2023-05-16T04:26:22;10.20;99.90
29731;DHT22;16639;51.488;0.152;2023-05-16T04:28:50;10.30;99.90
29731;DHT22;16639;51.488;0.152;2023-05-16T04:31:18;10.50;99.90
29731;DHT22;16639;51.488;0.152;2023-05-16T04:33:46;10.90;99.90
29731;DHT22;16639;51.488;0.152;2023-05-16T04:36:13;10.30;99.90
29731;DHT22;16639;51.488;0.152;2023-05-16T04:38:41;10.30;99.90
29731;DHT22;16639;51.488;0.152;2023-05-16T04:41:08;10.40;99.90
29731;DHT22;16639;51.488;0.152;2023-05-16T04:43:36;10.40;99.90
29731;DHT22;16639;51.488;0.152;2023-05-16T04:46:03;10.40;99.90
29731;DHT22;16639;51.488;0.152;2023-05-16T04:48:31;10.40;99.90
29731;DHT22;16639;51.488;0.152;2023-05-16T04:50:58;10.40;99.90
29731;DHT22;16639;51.488;0.152;2023-05-16T04:53:26;10.40;99.90
29731;DHT22;16639;51.488;0.152;2023-05-16T04:55:53;10.40;99.90
29731;DHT22;16639;51.488;0.152;2023-05-16T04:58:21;10.40;99.90
29731;DHT22;16639;51.488;0.152;2023-05-16T05:00:52;10.30;99.90
29731;DHT22;16639;51.488;0.152;2023-05-16T05:03:20;10.40;99.90
29731;DHT22;16639;51.488;0.152;2023-05-16T05:05:48;10.40;99.90
29731;DHT22;16639;51.488;0.152;2023-05-16T05:08:17;10.40;99.90
29731;DHT22;16639;51.488;0.152;2023-05-16T05:10:45;10.40;99.90
29731;DHT22;16639;51.488;0.152;2023-05-16T05:13:12;10.40;99.90
29731;DHT22;16639;51.488;0.152;2023-05-16T05:15:40;10.40;99.90
29731;DHT22;16639;51.488;0.152;2023-05-16T05:18:08;10.30;99.90
29731;DHT22;16639;51.488;0.152;2023-05-16T05:20:37;10.80;99.90
29731;DHT22;16639;51.488;0.152;2023-05-16T05:23:04;10.30;99.90
29731;DHT22;16639;51.488;0.152;2023-05-16T05:25:32;10.40;99.90
29731;DHT22;16639;51.488;0.152;2023-05-16T05:28:03;10.40;99.90
29731;DHT22;16639;51.488;0.152;2023-05-16T05:30:31;10.40;99.90
29731;DHT22;16639;51.488;0.152;2023-05-16T05:32:58;10.40;99.90
29731;DHT22;16639;51.488;0.152;2023-05-16T05:35:26;10.40;99.90
29731;DHT22;16639;51.488;0.152;2023-05-16T05:37:54;10.40;99.90
29731;DHT22;16639;51.488;0.152;2023-05-16T05:40:22;10.40;99.90
29731;DHT22;16639;51.488;0.152;2023-05-16T05:42:49;10.40;99.90
29731;DHT22;16639;51.488;0.152;2023-05-16T05:45:16;10.30;99.90
29731;DHT22;16639;51.488;0.152;2023-05-16T05:47:44;10.50;99.90
29731;DHT22;16639;51.488;0.152;2023-05-16T05:50:12;11.50;99.90
29731;DHT22;16639;51.488;0.152;2023-05-16T05:52:40;10.40;99.90
29731;DHT22;16639;51.488;0.152;2023-05-16T05:55:08;10.40;99.90
29731;DHT22;16639;51.488;0.152;2023-05-16T05:57:35;10.40;99.90
29731;DHT22;16639;51.488;0.152;2023-05-16T06:00:03;10.40;99.90
29731;DHT22;16639;51.488;0.152;2023-05-16T06:02:31;10.40;99.90
29731;DHT22;16639;51.488;0.152;2023-05-16T06:04:59;10.40;99.90
29731;DHT22;16639;51.488;0.152;2023-05-16T06:07:27;10.00;99.90
29731;DHT22;16639;51.488;0.152;2023-05-16T06:09:54;10.40;99.90
29731;DHT22;16639;51.488;0.152;2023-05-16T06:12:21;10.50;99.90
29731;DHT22;16639;51.488;0.152;2023-05-16T06:14:49;10.50;99.90
29731;DHT22;16639;51.488;0.152;2023-05-16T06:17:16;10.60;99.90
29731;DHT22;16639;51.488;0.152;2023-05-16T06:19:44;10.60;99.90
29731;DHT22;16639;51.488;0.152;2023-05-16T06:22:11;10.70;99.90
29731;DHT22;16639;51.488;0.152;2023-05-16T06:24:39;10.70;99.90
29731;DHT22;16639;51.488;0.152;2023-05-16T06:27:06;10.70;99.90
29731;DHT22;16639;51.488;0.152;2023-05-16T06:29:33;10.80;99.90
29731;DHT22;16639;51.488;0.152;2023-05-16T06:32:01;10.80;99.90
29731;DHT22;16639;51.488;0.152;2023-05-16T06:34:28;10.80;99.90
29731;DHT22;16639;51.488;0.152;2023-05-16T06:36:57;10.80;99.90
29731;DHT22;16639;51.488;0.152;2023-05-16T06:39:26;11.10;99.90
29731;DHT22;16639;51.488;0.152;2023-05-16T06:41:53;10.90;99.90
29731;DHT22;16639;51.488;0.152;2023-05-16T06:44:22;11.00;99.90
29731;DHT22;16639;51.488;0.152;2023-05-16T06:46:50;10.80;99.90
29731;DHT22;16639;51.488;0.152;2023-05-16T06:49:17;11.00;99.90
29731;DHT22;16639;51.488;0.152;2023-05-16T06:51:45;11.00;99.90
29731;DHT22;16639;51.488;0.152;2023-05-16T06:54:13;11.00;99.90
29731;DHT22;16639;51.488;0.152;2023-05-16T06:56:41;11.10;99.90
29731;DHT22;16639;51.488;0.152;2023-05-16T06:59:09;11.10;99.90
29731;DHT22;16639;51.488;0.152;2023-05-16T07:01:36;11.10;99.90
29731;DHT22;16639;51.488;0.152;2023-05-16T07:04:04;11.10;99.90
29731;DHT22;16639;51.488;0.152;2023-05-16T07:06:32;11.20;99.90
29731;DHT22;16639;51.488;0.152;2023-05-16T07:08:59;11.10;99.90
29731;DHT22;16639;51.488;0.152;2023-05-16T07:11:26;11.10;99.90
29731;DHT22;16639;51.488;0.152;2023-05-16T07:13:54;11.10;99.90
29731;DHT22;16639;51.488;0.152;2023-05-16T07:16:21;11.00;99.90
29731;DHT22;16639;51.488;0.152;2023-05-16T07:18:48;11.20;99.90
29731;DHT22;16639;51.488;0.152;2023-05-16T07:21:16;11.30;99.90
29731;DHT22;16639;51.488;0.152;2023-05-16T07:23:43;11.40;99.90
29731;DHT22;16639;51.488;0.152;2023-05-16T07:26:11;11.50;99.90
29731;DHT22;16639;51.488;0.152;2023-05-16T07:28:38;11.60;99.90
29731;DHT22;16639;51.488;0.152;2023-05-16T07:31:06;11.70;99.90
29731;DHT22;16639;51.488;0.152;2023-05-16T07:33:34;11.80;99.90
29731;DHT22;16639;51.488;0.152;2023-05-16T07:36:01;11.80;99.90
29731;DHT22;16639;51.488;0.152;2023-05-16T07:38:42;11.80;99.90
29731;DHT22;16639;51.488;0.152;2023-05-16T07:41:09;11.80;99.90
29731;DHT22;16639;51.488;0.152;2023-05-16T07:43:37;11.80;99.90
29731;DHT22;16639;51.488;0.152;2023-05-16T07:46:04;11.90;99.90
29731;DHT22;16639;51.488;0.152;2023-05-16T07:48:32;12.00;99.90
29731;DHT22;16639;51.488;0.152;2023-05-16T07:50:59;12.00;99.90
29731;DHT22;16639;51.488;0.152;2023-05-16T07:53:26;12.10;99.90
29731;DHT22;16639;51.488;0.152;2023-05-16T07:55:54;12.20;99.90
29731;DHT22;16639;51.488;0.152;2023-05-16T07:58:21;12.20;99.90
29731;DHT22;16639;51.488;0.152;2023-05-16T08:00:49;12.30;99.90
29731;DHT22;16639;51.488;0.152;2023-05-16T08:03:17;12.30;99.90
29731;DHT22;16639;51.488;0.152;2023-05-16T08:05:44;12.30;99.90
29731;DHT22;16639;51.488;0.152;2023-05-16T08:08:12;12.40;99.90
29731;DHT22;16639;51.488;0.152;2023-05-16T08:10:39;12.40;99.90
29731;DHT22;16639;51.488;0.152;2023-05-16T08:13:07;12.50;99.90
29731;DHT22;16639;51.488;0.152;2023-05-16T08:15:34;12.50;99.90
29731;DHT22;16639;51.488;0.152;2023-05-16T08:18:02;12.40;99.90
29731;DHT22;16639;51.488;0.152;2023-05-16T08:20:29;12.40;99.90
29731;DHT22;16639;51.488;0.152;2023-05-16T08:22:57;12.50;99.90
29731;DHT22;16639;51.488;0.152;2023-05-16T08:25:24;12.50;99.90
29731;DHT22;16639;51.488;0.152;2023-05-16T08:27:53;12.40;99.90
29731;DHT22;16639;51.488;0.152;2023-05-16T08:30:20;12.50;99.90
29731;DHT22;16639;51.488;0.152;2023-05-16T08:32:48;12.50;99.90
29731;DHT22;16639;51.488;0.152;2023-05-16T08:35:15;12.50;99.90
29731;DHT22;16639;51.488;0.152;2023-05-16T08:37:43;13.00;99.90
29731;DHT22;16639;51.488;0.152;2023-05-16T08:40:11;12.50;99.90
29731;DHT22;16639;51.488;0.152;2023-05-16T08:42:40;12.50;99.90
29731;DHT22;16639;51.488;0.152;2023-05-16T08:45:10;12.50;99.90
29731;DHT22;16639;51.488;0.152;2023-05-16T08:47:39;12.50;99.90
29731;DHT22;16639;51.488;0.152;2023-05-16T08:50:09;12.50;99.90
29731;DHT22;16639;51.488;0.152;2023-05-16T08:52:37;12.60;99.90
29731;DHT22;16639;51.488;0.152;2023-05-16T08:55:09;12.60;99.90
29731;DHT22;16639;51.488;0.152;2023-05-16T08:57:38;13.80;99.90
29731;DHT22;16639;51.488;0.152;2023-05-16T09:00:07;12.70;99.90
29731;DHT22;16639;51.488;0.152;2023-05-16T09:02:41;12.80;99.90
29731;DHT22;16639;51.488;0.152;2023-05-16T09:05:12;12.80;99.90
29731;DHT22;16639;51.488;0.152;2023-05-16T09:07:40;12.80;99.90
29731;DHT22;16639;51.488;0.152;2023-05-16T09:10:08;12.80;99.90
29731;DHT22;16639;51.488;0.152;2023-05-16T09:12:37;12.80;99.90
29731;DHT22;16639;51.488;0.152;2023-05-16T09:15:06;12.80;99.90
29731;DHT22;16639;51.488;0.152;2023-05-16T09:20:19;13.00;99.90
29731;DHT22;16639;51.488;0.152;2023-05-16T09:22:55;13.00;99.90
29731;DHT22;16639;51.488;0.152;2023-05-16T09:25:28;13.00;99.90
29731;DHT22;16639;51.488;0.152;2023-05-16T09:28:01;13.10;99.90
29731;DHT22;16639;51.488;0.152;2023-05-16T09:30:33;13.10;99.90
29731;DHT22;16639;51.488;0.152;2023-05-16T09:33:01;13.20;99.90
29731;DHT22;16639;51.488;0.152;2023-05-16T09:35:30;13.20;99.90
29731;DHT22;16639;51.488;0.152;2023-05-16T09:38:01;13.30;99.90
29731;DHT22;16639;51.488;0.152;2023-05-16T09:40:30;13.20;99.90
29731;DHT22;16639;51.488;0.152;2023-05-16T09:43:02;13.10;99.90
29731;DHT22;16639;51.488;0.152;2023-05-16T09:45:31;13.30;99.90
29731;DHT22;16639;51.488;0.152;2023-05-16T09:48:05;13.30;99.90
29731;DHT22;16639;51.488;0.152;2023-05-16T09:50:35;13.00;99.90
29731;DHT22;16639;51.488;0.152;2023-05-16T09:53:03;13.40;99.90
29731;DHT22;16639;51.488;0.152;2023-05-16T09:55:32;13.40;99.90
29731;DHT22;16639;51.488;0.152;2023-05-16T09:57:59;13.50;99.90
29731;DHT22;16639;51.488;0.152;2023-05-16T10:00:31;13.50;99.90
29731;DHT22;16639;51.488;0.152;2023-05-16T10:03:00;13.60;99.90
29731;DHT22;16639;51.488;0.152;2023-05-16T10:05:32;13.70;99.90
29731;DHT22;16639;51.488;0.152;2023-05-16T10:08:02;13.70;99.90
29731;DHT22;16639;51.488;0.152;2023-05-16T10:10:32;13.70;99.90
29731;DHT22;16639;51.488;0.152;2023-05-16T10:13:04;13.80;99.90
29731;DHT22;16639;51.488;0.152;2023-05-16T10:15:35;13.90;99.90
29731;DHT22;16639;51.488;0.152;2023-05-16T10:18:06;14.00;99.90
29731;DHT22;16639;51.488;0.152;2023-05-16T10:20:41;14.00;99.90
29731;DHT22;16639;51.488;0.152;2023-05-16T10:23:18;14.10;99.90
29731;DHT22;16639;51.488;0.152;2023-05-16T10:25:48;14.00;99.90
29731;DHT22;16639;51.488;0.152;2023-05-16T10:28:16;14.40;99.90
29731;DHT22;16639;51.488;0.152;2023-05-16T10:30:45;13.90;99.90
29731;DHT22;16639;51.488;0.152;2023-05-16T10:33:16;13.90;99.90
29731;DHT22;16639;51.488;0.152;2023-05-16T10:35:45;13.90;99.90
29731;DHT22;16639;51.488;0.152;2023-05-16T10:38:16;13.90;99.90
29731;DHT22;16639;51.488;0.152;2023-05-16T10:40:46;14.00;99.90
29731;DHT22;16639;51.488;0.152;2023-05-16T10:43:25;14.00;99.90
29731;DHT22;16639;51.488;0.152;2023-05-16T10:45:54;14.10;99.90
29731;DHT22;16639;51.488;0.152;2023-05-16T10:48:36;14.00;99.90
29731;DHT22;16639;51.488;0.152;2023-05-16T10:54:06;14.00;99.90
29731;DHT22;16639;51.488;0.152;2023-05-16T10:56:35;14.10;99.90
29731;DHT22;16639;51.488;0.152;2023-05-16T10:59:02;14.10;99.90
29731;DHT22;16639;51.488;0.152;2023-05-16T11:01:33;14.20;99.90
29731;DHT22;16639;51.488;0.152;2023-05-16T11:04:18;14.30;99.90
29731;DHT22;16639;51.488;0.152;2023-05-16T11:06:50;14.10;99.90
29731;DHT22;16639;51.488;0.152;2023-05-16T11:09:20;14.40;99.90
29731;DHT22;16639;51.488;0.152;2023-05-16T11:14:22;14.40;99.90
29731;DHT22;16639;51.488;0.152;2023-05-16T11:16:52;14.40;99.90
29731;DHT22;16639;51.488;0.152;2023-05-16T11:19:40;14.40;99.90
29731;DHT22;16639;51.488;0.152;2023-05-16T11:25:04;14.60;99.90
29731;DHT22;16639;51.488;0.152;2023-05-16T11:27:33;14.70;99.90
29731;DHT22;16639;51.488;0.152;2023-05-16T11:32:35;14.70;99.90
29731;DHT22;16639;51.488;0.152;2023-05-16T11:35:04;14.70;99.90
29731;DHT22;16639;51.488;0.152;2023-05-16T11:37:31;14.70;99.90
29731;DHT22;16639;51.488;0.152;2023-05-16T11:39:59;14.70;99.90
29731;DHT22;16639;51.488;0.152;2023-05-16T11:42:33;14.80;99.90
29731;DHT22;16639;51.488;0.152;2023-05-16T11:47:36;14.90;99.90
29731;DHT22;16639;51.488;0.152;2023-05-16T11:50:12;14.90;99.90
29731;DHT22;16639;51.488;0.152;2023-05-16T11:52:48;14.90;99.90
29731;DHT22;16639;51.488;0.152;2023-05-16T11:55:26;14.90;99.90
29731;DHT22;16639;51.488;0.152;2023-05-16T11:58:08;14.90;99.90
29731;DHT22;16639;51.488;0.152;2023-05-16T12:00:46;14.90;99.90
29731;DHT22;16639;51.488;0.152;2023-05-16T12:03:14;15.00;99.90
29731;DHT22;16639;51.488;0.152;2023-05-16T12:05:52;15.00;99.90
29731;DHT22;16639;51.488;0.152;2023-05-16T12:08:20;15.00;99.90
29731;DHT22;16639;51.488;0.152;2023-05-16T12:10:49;15.00;99.90
29731;DHT22;16639;51.488;0.152;2023-05-16T12:13:19;15.10;99.90
29731;DHT22;16639;51.488;0.152;2023-05-16T12:15:47;15.00;99.90
29731;DHT22;16639;51.488;0.152;2023-05-16T12:18:15;15.10;99.90
29731;DHT22;16639;51.488;0.152;2023-05-16T12:20:44;15.20;99.90
29731;DHT22;16639;51.488;0.152;2023-05-16T12:23:12;15.90;99.90
29731;DHT22;16639;51.488;0.152;2023-05-16T12:25:45;15.20;99.90
29731;DHT22;16639;51.488;0.152;2023-05-16T12:28:14;15.20;99.90
29731;DHT22;16639;51.488;0.152;2023-05-16T12:30:43;15.20;99.90
29731;DHT22;16639;51.488;0.152;2023-05-16T12:33:14;15.20;99.90
29731;DHT22;16639;51.488;0.152;2023-05-16T12:35:44;15.20;99.90
29731;DHT22;16639;51.488;0.152;2023-05-16T12:38:14;15.20;99.90
29731;DHT22;16639;51.488;0.152;2023-05-16T12:40:42;15.20;99.90
29731;DHT22;16639;51.488;0.152;2023-05-16T12:43:19;15.30;99.90
29731;DHT22;16639;51.488;0.152;2023-05-16T12:45:55;15.30;99.90
29731;DHT22;16639;51.488;0.152;2023-05-16T12:48:30;15.30;99.90
29731;DHT22;16639;51.488;0.152;2023-05-16T12:51:12;15.30;99.90
29731;DHT22;16639;51.488;0.152;2023-05-16T12:53:45;15.40;99.90
29731;DHT22;16639;51.488;0.152;2023-05-16T12:56:33;15.50;99.90
29731;DHT22;16639;51.488;0.152;2023-05-16T12:59:01;15.50;99.90
29731;DHT22;16639;51.488;0.152;2023-05-16T13:01:29;15.60;99.90
29731;DHT22;16639;51.488;0.152;2023-05-16T13:03:56;15.70;99.90
29731;DHT22;16639;51.488;0.152;2023-05-16T13:06:24;15.80;99.90
29731;DHT22;16639;51.488;0.152;2023-05-16T13:08:53;15.80;99.90
29731;DHT22;16639;51.488;0.152;2023-05-16T13:11:20;15.90;99.90
29731;DHT22;16639;51.488;0.152;2023-05-16T13:13:49;15.90;99.90
29731;DHT22;16639;51.488;0.152;2023-05-16T13:16:17;15.90;99.90
29731;DHT22;16639;51.488;0.152;2023-05-16T13:18:44;16.20;99.90
29731;DHT22;16639;51.488;0.152;2023-05-16T13:21:12;15.80;99.90
29731;DHT22;16639;51.488;0.152;2023-05-16T13:23:40;15.20;99.90
29731;DHT22;16639;51.488;0.152;2023-05-16T13:26:07;15.80;99.90
29731;DHT22;16639;51.488;0.152;2023-05-16T13:28:36;15.90;99.90
29731;DHT22;16639;51.488;0.152;2023-05-16T13:31:04;15.90;99.90
29731;DHT22;16639;51.488;0.152;2023-05-16T13:33:31;15.80;99.90
29731;DHT22;16639;51.488;0.152;2023-05-16T13:35:59;15.90;99.90
29731;DHT22;16639;51.488;0.152;2023-05-16T13:38:26;15.90;99.90
29731;DHT22;16639;51.488;0.152;2023-05-16T13:40:53;15.90;99.90
29731;DHT22;16639;51.488;0.152;2023-05-16T13:43:21;17.40;99.90
29731;DHT22;16639;51.488;0.152;2023-05-16T13:45:48;15.90;99.90
29731;DHT22;16639;51.488;0.152;2023-05-16T13:48:16;16.00;99.90
29731;DHT22;16639;51.488;0.152;2023-05-16T13:50:44;16.00;99.90
29731;DHT22;16639;51.488;0.152;2023-05-16T13:53:11;16.10;99.90
29731;DHT22;16639;51.488;0.152;2023-05-16T13:55:39;16.30;99.90
29731;DHT22;16639;51.488;0.152;2023-05-16T13:58:06;16.20;99.90
29731;DHT22;16639;51.488;0.152;2023-05-16T14:00:34;16.30;99.90
29731;DHT22;16639;51.488;0.152;2023-05-16T14:03:11;16.40;99.90
29731;DHT22;16639;51.488;0.152;2023-05-16T14:05:39;16.40;99.90
29731;DHT22;16639;51.488;0.152;2023-05-16T14:08:06;16.30;99.90
29731;DHT22;16639;51.488;0.152;2023-05-16T14:10:34;16.40;99.90
29731;DHT22;16639;51.488;0.152;2023-05-16T14:13:01;16.40;99.90
29731;DHT22;16639;51.488;0.152;2023-05-16T14:15:29;16.30;99.90
29731;DHT22;16639;51.488;0.152;2023-05-16T14:17:57;16.40;99.90
29731;DHT22;16639;51.488;0.152;2023-05-16T14:20:25;16.40;99.90
29731;DHT22;16639;51.488;0.152;2023-05-16T14:22:53;16.40;99.90
29731;DHT22;16639;51.488;0.152;2023-05-16T14:25:21;17.00;99.90
29731;DHT22;16639;51.488;0.152;2023-05-16T14:27:48;16.40;99.90
29731;DHT22;16639;51.488;0.152;2023-05-16T14:30:18;16.40;99.90
29731;DHT22;16639;51.488;0.152;2023-05-16T14:32:46;16.50;99.90
29731;DHT22;16639;51.488;0.152;2023-05-16T14:35:13;16.50;99.90
29731;DHT22;16639;51.488;0.152;2023-05-16T14:37:41;16.60;99.90
29731;DHT22;16639;51.488;0.152;2023-05-16T14:40:09;16.70;99.90
29731;DHT22;16639;51.488;0.152;2023-05-16T14:42:36;16.70;99.90
29731;DHT22;16639;51.488;0.152;2023-05-16T14:45:04;16.70;99.90
29731;DHT22;16639;51.488;0.152;2023-05-16T14:47:33;16.70;99.90
29731;DHT22;16639;51.488;0.152;2023-05-16T14:50:00;16.70;99.90
29731;DHT22;16639;51.488;0.152;2023-05-16T14:52:28;16.70;99.90
29731;DHT22;16639;51.488;0.152;2023-05-16T14:54:55;16.40;99.90
29731;DHT22;16639;51.488;0.152;2023-05-16T14:57:23;16.70;99.90
29731;DHT22;16639;51.488;0.152;2023-05-16T14:59:51;16.70;99.90
29731;DHT22;16639;51.488;0.152;2023-05-16T15:02:18;16.80;99.90
29731;DHT22;16639;51.488;0.152;2023-05-16T15:04:46;16.80;99.90
29731;DHT22;16639;51.488;0.152;2023-05-16T15:07:13;19.40;99.90
29731;DHT22;16639;51.488;0.152;2023-05-16T15:09:41;16.80;99.90
29731;DHT22;16639;51.488;0.152;2023-05-16T15:12:08;16.80;99.90
29731;DHT22;16639;51.488;0.152;2023-05-16T15:14:36;16.80;99.90
29731;DHT22;16639;51.488;0.152;2023-05-16T15:17:04;16.80;99.90
29731;DHT22;16639;51.488;0.152;2023-05-16T15:19:35;16.80;99.90
29731;DHT22;16639;51.488;0.152;2023-05-16T15:22:02;16.70;99.90
29731;DHT22;16639;51.488;0.152;2023-05-16T15:24:33;16.70;99.90
29731;DHT22;16639;51.488;0.152;2023-05-16T15:27:01;16.70;99.90
29731;DHT22;16639;51.488;0.152;2023-05-16T15:29:30;16.70;99.90
29731;DHT22;16639;51.488;0.152;2023-05-16T15:32:02;16.70;99.90
29731;DHT22;16639;51.488;0.152;2023-05-16T15:34:29;16.70;99.90
29731;DHT22;16639;51.488;0.152;2023-05-16T15:36:57;16.70;99.90
29731;DHT22;16639;51.488;0.152;2023-05-16T15:39:25;16.70;99.90
29731;DHT22;16639;51.488;0.152;2023-05-16T15:41:52;16.70;99.90
29731;DHT22;16639;51.488;0.152;2023-05-16T15:44:36;16.70;99.90
29731;DHT22;16639;51.488;0.152;2023-05-16T15:47:04;15.80;99.90
29731;DHT22;16639;51.488;0.152;2023-05-16T15:49:33;16.60;99.90
29731;DHT22;16639;51.488;0.152;2023-05-16T15:52:03;16.50;99.90
29731;DHT22;16639;51.488;0.152;2023-05-16T15:54:31;16.50;99.90
29731;DHT22;16639;51.488;0.152;2023-05-16T15:56:58;16.50;99.90
29731;DHT22;16639;51.488;0.152;2023-05-16T15:59:26;16.50;99.90
29731;DHT22;16639;51.488;0.152;2023-05-16T16:01:53;16.50;99.90
29731;DHT22;16639;51.488;0.152;2023-05-16T16:04:20;16.50;99.90
29731;DHT22;16639;51.488;0.152;2023-05-16T16:06:49;16.50;99.90
29731;DHT22;16639;51.488;0.152;2023-05-16T16:09:17;16.40;99.90
29731;DHT22;16639;51.488;0.152;2023-05-16T16:11:44;16.40;99.90
29731;DHT22;16639;51.488;0.152;2023-05-16T16:14:12;16.50;99.90
29731;DHT22;16639;51.488;0.152;2023-05-16T16:16:39;16.50;99.90
29731;DHT22;16639;51.488;0.152;2023-05-16T16:19:07;16.50;99.90
29731;DHT22;16639;51.488;0.152;2023-05-16T16:21:35;16.50;99.90
29731;DHT22;16639;51.488;0.152;2023-05-16T16:24:05;16.50;99.90
29731;DHT22;16639;51.488;0.152;2023-05-16T16:26:33;16.40;99.90
29731;DHT22;16639;51.488;0.152;2023-05-16T16:29:00;16.50;99.90
29731;DHT22;16639;51.488;0.152;2023-05-16T16:31:28;16.40;99.90
29731;DHT22;16639;51.488;0.152;2023-05-16T16:33:55;16.50;99.90